createdAt,value
2022-12-27T00:55:33.286Z,0.50
2022-12-27T00:56:34.217Z,0.50
2022-12-27T00:57:34.169Z,0.50
2022-12-27T00:58:39.891Z,0.50
2022-12-27T00:59:34.057Z,0.50
2022-12-27T01:00:34.007Z,0.50
2022-12-27T01:01:34.072Z,0.50
2022-12-27T01:02:33.908Z,0.50
2022-12-27T01:03:33.911Z,0.50
2022-12-27T01:04:33.831Z,0.50
2022-12-27T01:05:33.779Z,0.50
2022-12-27T01:06:33.732Z,0.50
2022-12-27T01:07:33.671Z,0.50
2022-12-27T01:08:33.624Z,0.50
2022-12-27T01:09:33.602Z,0.50
2022-12-27T01:10:33.533Z,0.49
2022-12-27T01:11:33.511Z,0.50
2022-12-27T01:13:33.400Z,0.50
2022-12-27T01:14:33.350Z,0.50
2022-12-27T01:15:33.322Z,0.50
2022-12-27T01:16:33.307Z,0.50
2022-12-27T01:17:33.212Z,0.51
2022-12-27T01:18:33.168Z,0.50
2022-12-27T01:19:33.138Z,0.50
2022-12-27T01:20:33.085Z,0.50
2022-12-27T01:21:33.035Z,0.51
2022-12-27T01:22:32.996Z,0.50
2022-12-27T01:23:32.926Z,0.50
2022-12-27T01:24:32.878Z,0.51
2022-12-27T01:25:32.822Z,0.51
2022-12-27T01:26:32.788Z,0.50
2022-12-27T01:27:32.750Z,0.50
2022-12-27T01:28:33.352Z,0.51
2022-12-27T01:29:32.626Z,0.51
2022-12-27T01:30:32.578Z,0.50
2022-12-27T01:31:32.654Z,0.51
2022-12-27T01:32:32.474Z,0.51
2022-12-27T01:33:32.434Z,0.51
2022-12-27T01:34:32.404Z,0.50
2022-12-27T01:35:32.327Z,0.51
2022-12-27T01:36:32.280Z,0.51
2022-12-27T01:37:32.235Z,0.50
2022-12-27T01:38:32.179Z,0.51
2022-12-27T01:39:32.125Z,0.51
2022-12-27T01:40:32.068Z,0.51
2022-12-27T01:41:32.015Z,0.52
2022-12-27T01:42:31.968Z,0.51
2022-12-27T01:43:31.946Z,0.51
2022-12-27T01:44:31.871Z,0.51
2022-12-27T01:45:31.879Z,0.51
2022-12-27T01:46:31.784Z,0.51
2022-12-27T01:47:31.734Z,0.51
2022-12-27T01:48:31.694Z,0.51
2022-12-27T01:49:31.660Z,0.51
2022-12-27T01:50:31.610Z,0.51
2022-12-27T01:51:31.557Z,0.52
2022-12-27T01:52:34.902Z,0.51
2022-12-27T01:53:31.476Z,0.52
2022-12-27T01:54:31.425Z,0.52
2022-12-27T01:55:31.371Z,0.52
2022-12-27T01:56:31.388Z,0.52
2022-12-27T01:57:31.285Z,0.52
2022-12-27T01:58:31.247Z,0.52
2022-12-27T01:59:31.226Z,0.52
2022-12-27T02:00:31.152Z,0.52
2022-12-27T02:01:31.212Z,0.52
2022-12-27T02:02:31.148Z,0.52
2022-12-27T02:03:30.987Z,0.52
2022-12-27T02:04:30.949Z,0.51
2022-12-27T02:05:30.903Z,0.53
2022-12-27T02:06:30.844Z,0.52
2022-12-27T02:07:30.793Z,0.52
2022-12-27T02:08:30.744Z,0.51
2022-12-27T02:09:30.683Z,0.52
2022-12-27T02:10:30.635Z,0.52
2022-12-27T02:11:30.577Z,0.52
2022-12-27T02:12:30.535Z,0.52
2022-12-27T02:13:30.480Z,0.52
2022-12-27T02:14:30.433Z,0.52
2022-12-27T02:15:30.415Z,0.52
2022-12-27T02:16:30.413Z,0.52
2022-12-27T02:17:30.279Z,0.52
2022-12-27T02:18:30.233Z,0.52
2022-12-27T02:19:30.175Z,0.52
2022-12-27T02:20:30.136Z,0.52
2022-12-27T02:21:30.084Z,0.52
2022-12-27T02:22:30.034Z,0.51
2022-12-27T02:23:33.446Z,0.53
2022-12-27T02:24:29.915Z,0.53
2022-12-27T02:25:29.858Z,0.53
2022-12-27T02:26:29.804Z,0.53
2022-12-27T02:27:29.748Z,0.52
2022-12-27T02:28:29.696Z,0.53
2022-12-27T02:29:29.645Z,0.53
2022-12-27T02:30:29.585Z,0.53
2022-12-27T02:31:29.667Z,0.52
2022-12-27T02:32:29.482Z,0.52
2022-12-27T02:33:29.424Z,0.52
2022-12-27T02:34:29.400Z,0.53
2022-12-27T02:35:29.328Z,0.53
2022-12-27T02:36:29.278Z,0.53
2022-12-27T02:37:29.220Z,0.54
2022-12-27T02:38:29.158Z,0.53
2022-12-27T02:39:29.153Z,0.53
2022-12-27T02:40:29.057Z,0.53
2022-12-27T02:41:29.008Z,0.54
2022-12-27T02:42:28.956Z,0.54
2022-12-27T02:43:28.913Z,0.53
2022-12-27T02:44:28.853Z,0.52
2022-12-27T02:45:28.809Z,0.53
2022-12-27T02:46:28.823Z,0.54
2022-12-27T02:47:28.729Z,0.52
2022-12-27T02:48:28.646Z,0.54
2022-12-27T02:49:28.599Z,0.53
2022-12-27T02:50:28.545Z,0.53
2022-12-27T02:51:28.498Z,0.54
2022-12-27T02:52:28.457Z,0.53
2022-12-27T02:53:28.394Z,0.54
2022-12-27T02:54:28.357Z,0.53
2022-12-27T02:55:28.293Z,0.54
2022-12-27T02:56:28.248Z,0.54
2022-12-27T02:57:28.203Z,0.54
2022-12-27T02:58:28.159Z,0.54
2022-12-27T02:59:28.111Z,0.54
2022-12-27T03:00:28.074Z,0.54
2022-12-27T03:01:28.177Z,0.54
2022-12-27T03:02:28.562Z,0.55
2022-12-27T03:03:27.940Z,0.54
2022-12-27T03:04:27.863Z,0.54
2022-12-27T03:05:27.823Z,0.55
2022-12-27T03:06:27.793Z,0.54
2022-12-27T03:07:27.717Z,0.55
2022-12-27T03:08:27.655Z,0.54
2022-12-27T03:09:27.592Z,0.55
2022-12-27T03:10:27.598Z,0.55
2022-12-27T03:11:27.494Z,0.55
2022-12-27T03:12:27.440Z,0.56
2022-12-27T03:13:27.386Z,0.55
2022-12-27T03:14:27.343Z,0.54
2022-12-27T03:15:33.180Z,0.55
2022-12-27T03:16:27.280Z,0.55
2022-12-27T03:17:27.188Z,0.55
2022-12-27T03:18:27.127Z,0.55
2022-12-27T03:19:27.097Z,0.55
2022-12-27T03:20:27.018Z,0.55
2022-12-27T03:21:26.977Z,0.55
2022-12-27T03:22:26.912Z,0.55
2022-12-27T03:23:26.853Z,0.55
2022-12-27T03:24:26.798Z,0.55
2022-12-27T03:25:26.766Z,0.56
2022-12-27T03:26:26.701Z,0.55
2022-12-27T03:27:26.673Z,0.55
2022-12-27T03:28:26.624Z,0.55
2022-12-27T03:29:26.545Z,0.55
2022-12-27T03:30:26.493Z,0.55
2022-12-27T03:31:26.440Z,0.55
2022-12-27T03:32:26.395Z,0.54
2022-12-27T03:33:26.342Z,0.56
2022-12-27T03:34:26.285Z,0.55
2022-12-27T03:35:26.260Z,0.56
2022-12-27T03:36:26.189Z,0.56
2022-12-27T03:37:26.140Z,0.55
2022-12-27T03:38:26.099Z,0.56
2022-12-27T03:39:26.042Z,0.55
2022-12-27T03:40:25.996Z,0.56
2022-12-27T03:41:25.944Z,0.56
2022-12-27T03:42:25.898Z,0.56
2022-12-27T03:43:25.850Z,0.55
2022-12-27T03:44:25.798Z,0.56
2022-12-27T03:45:25.745Z,0.57
2022-12-27T03:46:25.719Z,0.55
2022-12-27T03:47:25.624Z,0.57
2022-12-27T03:48:25.566Z,0.56
2022-12-27T03:49:25.523Z,0.57
2022-12-27T03:50:25.456Z,0.57
2022-12-27T03:51:25.473Z,0.56
2022-12-27T03:52:25.348Z,0.56
2022-12-27T03:53:25.284Z,0.56
2022-12-27T03:54:25.231Z,0.56
2022-12-27T03:55:29.982Z,0.57
2022-12-27T03:56:25.122Z,0.57
2022-12-27T03:57:25.062Z,0.57
2022-12-27T03:58:25.007Z,0.57
2022-12-27T03:59:24.949Z,0.57
2022-12-27T04:00:24.895Z,0.57
2022-12-27T04:01:24.981Z,0.56
2022-12-27T04:02:24.999Z,0.58
2022-12-27T04:03:24.770Z,0.58
2022-12-27T04:04:24.693Z,0.56
2022-12-27T04:05:33.433Z,0.56
2022-12-27T04:06:24.586Z,0.57
2022-12-27T04:07:24.573Z,0.57
2022-12-27T04:08:24.484Z,0.57
2022-12-27T04:09:24.430Z,0.57
2022-12-27T04:10:24.381Z,0.57
2022-12-27T04:11:24.361Z,0.57
2022-12-27T04:12:24.283Z,0.57
2022-12-27T04:13:24.231Z,0.57
2022-12-27T04:14:24.173Z,0.57
2022-12-27T04:15:24.129Z,0.57
2022-12-27T04:16:24.194Z,0.57
2022-12-27T04:17:24.036Z,0.57
2022-12-27T04:18:23.961Z,0.57
2022-12-27T04:19:23.928Z,0.56
2022-12-27T04:20:23.861Z,0.56
2022-12-27T04:21:23.877Z,0.57
2022-12-27T04:22:23.769Z,0.57
2022-12-27T04:23:23.737Z,0.58
2022-12-27T04:24:23.655Z,0.57
2022-12-27T04:25:24.435Z,0.56
2022-12-27T04:26:23.599Z,0.57
2022-12-27T04:27:23.488Z,0.56
2022-12-27T04:28:23.437Z,0.56
2022-12-27T04:29:23.403Z,0.56
2022-12-27T04:30:23.326Z,0.55
2022-12-27T04:31:23.321Z,0.56
2022-12-27T04:32:23.227Z,0.56
2022-12-27T04:33:23.181Z,0.56
2022-12-27T04:34:23.128Z,0.56
2022-12-27T04:35:23.077Z,0.56
2022-12-27T04:36:23.027Z,0.55
2022-12-27T04:37:22.983Z,0.56
2022-12-27T04:38:22.946Z,0.56
2022-12-27T04:39:22.972Z,0.55
2022-12-27T04:40:22.842Z,0.56
2022-12-27T04:41:22.814Z,0.55
2022-12-27T04:42:22.747Z,0.56
2022-12-27T04:43:22.703Z,0.55
2022-12-27T04:44:22.687Z,0.56
2022-12-27T04:45:22.634Z,0.56
2022-12-27T04:46:22.606Z,0.56
2022-12-27T04:47:22.545Z,0.56
2022-12-27T04:48:22.476Z,0.56
2022-12-27T04:49:22.416Z,0.56
2022-12-27T04:50:22.386Z,0.57
2022-12-27T04:51:22.311Z,0.55
2022-12-27T04:52:22.264Z,0.56
2022-12-27T04:53:22.210Z,0.56
2022-12-27T04:54:22.163Z,0.56
2022-12-27T04:55:22.220Z,0.57
2022-12-27T04:56:22.077Z,0.55
2022-12-27T04:57:22.046Z,0.56
2022-12-27T04:58:21.983Z,0.55
2022-12-27T04:59:21.936Z,0.56
2022-12-27T05:00:21.937Z,0.56
2022-12-27T05:01:21.956Z,0.55
2022-12-27T05:02:21.882Z,0.55
2022-12-27T05:03:21.813Z,0.55
2022-12-27T05:04:21.703Z,0.55
2022-12-27T05:05:21.652Z,0.55
2022-12-27T05:06:21.613Z,0.57
2022-12-27T05:07:21.570Z,0.56
2022-12-27T05:08:21.552Z,0.55
2022-12-27T05:09:23.314Z,0.55
2022-12-27T05:10:21.426Z,0.57
2022-12-27T05:11:21.409Z,0.58
2022-12-27T05:12:21.346Z,0.56
2022-12-27T05:13:21.320Z,0.56
2022-12-27T05:14:21.236Z,0.55
2022-12-27T05:15:21.184Z,0.55
2022-12-27T05:16:21.176Z,0.55
2022-12-27T05:17:21.082Z,0.57
2022-12-27T05:18:21.088Z,0.55
2022-12-27T05:19:20.975Z,0.56
2022-12-27T05:20:20.923Z,0.55
2022-12-27T05:21:20.890Z,0.55
2022-12-27T05:22:20.829Z,0.56
2022-12-27T05:23:20.866Z,0.55
2022-12-27T05:24:20.728Z,0.55
2022-12-27T05:25:20.688Z,0.54
2022-12-27T05:26:20.631Z,0.54
2022-12-27T05:27:20.626Z,0.55
2022-12-27T05:28:20.536Z,0.55
2022-12-27T05:29:20.483Z,0.55
2022-12-27T05:30:20.457Z,0.54
2022-12-27T05:31:20.445Z,0.55
2022-12-27T05:32:20.335Z,0.55
2022-12-27T05:33:20.288Z,0.54
2022-12-27T05:34:20.241Z,0.54
2022-12-27T05:35:20.219Z,0.54
2022-12-27T05:36:20.140Z,0.55
2022-12-27T05:37:20.099Z,0.55
2022-12-27T05:38:20.040Z,0.56
2022-12-27T05:39:20.050Z,0.54
2022-12-27T05:40:19.946Z,0.55
2022-12-27T05:41:19.900Z,0.56
2022-12-27T05:42:19.839Z,0.54
2022-12-27T05:43:19.815Z,0.54
2022-12-27T05:44:19.781Z,0.55
2022-12-27T05:45:19.737Z,0.56
2022-12-27T05:46:19.704Z,0.55
2022-12-27T05:47:19.601Z,0.55
2022-12-27T05:48:19.550Z,0.56
2022-12-27T05:49:19.508Z,0.55
2022-12-27T05:50:19.478Z,0.55
2022-12-27T05:51:19.409Z,0.55
2022-12-27T05:52:19.364Z,0.56
2022-12-27T05:53:19.355Z,0.55
2022-12-27T05:54:19.271Z,0.56
2022-12-27T05:55:19.222Z,0.56
2022-12-27T05:56:19.178Z,0.55
2022-12-27T05:57:19.126Z,0.56
2022-12-27T05:58:19.106Z,0.55
2022-12-27T05:59:19.080Z,0.55
2022-12-27T06:00:18.998Z,0.56
2022-12-27T06:01:19.077Z,0.56
2022-12-27T06:02:19.132Z,0.56
2022-12-27T06:03:18.953Z,0.56
2022-12-27T06:04:18.803Z,0.56
2022-12-27T06:05:18.752Z,0.56
2022-12-27T06:06:19.150Z,0.56
2022-12-27T06:07:18.662Z,0.55
2022-12-27T06:08:18.610Z,0.56
2022-12-27T06:09:18.563Z,0.56
2022-12-27T06:10:18.517Z,0.56
2022-12-27T06:11:18.496Z,0.56
2022-12-27T06:12:18.432Z,0.56
2022-12-27T06:13:18.367Z,0.56
2022-12-27T06:14:18.338Z,0.55
2022-12-27T06:15:18.308Z,0.56
2022-12-27T06:16:18.317Z,0.56
2022-12-27T06:17:18.201Z,0.56
2022-12-27T06:18:18.157Z,0.57
2022-12-27T06:19:18.103Z,0.56
2022-12-27T06:20:18.056Z,0.56
2022-12-27T06:21:18.006Z,0.56
2022-12-27T06:22:17.964Z,0.56
2022-12-27T06:23:17.922Z,0.56
2022-12-27T06:24:17.873Z,0.57
2022-12-27T06:25:17.827Z,0.57
2022-12-27T06:26:17.823Z,0.57
2022-12-27T06:27:17.735Z,0.57
2022-12-27T06:28:17.684Z,0.56
2022-12-27T06:29:17.641Z,0.57
2022-12-27T06:30:17.588Z,0.57
2022-12-27T06:31:17.704Z,0.57
2022-12-27T06:32:17.492Z,0.57
2022-12-27T06:33:17.439Z,0.56
2022-12-27T06:34:17.393Z,0.58
2022-12-27T06:35:17.344Z,0.57
2022-12-27T06:36:17.320Z,0.57
2022-12-27T06:37:17.267Z,0.57
2022-12-27T06:38:17.197Z,0.57
2022-12-27T06:39:17.156Z,0.58
2022-12-27T06:40:17.099Z,0.57
2022-12-27T06:41:17.065Z,0.57
2022-12-27T06:42:17.005Z,0.57
2022-12-27T06:43:16.951Z,0.57
2022-12-27T06:44:16.910Z,0.58
2022-12-27T06:45:16.865Z,0.58
2022-12-27T06:46:17.902Z,0.57
2022-12-27T06:47:16.781Z,0.58
2022-12-27T06:48:16.701Z,0.57
2022-12-27T06:49:16.653Z,0.57
2022-12-27T06:50:16.598Z,0.58
2022-12-27T06:51:16.552Z,0.58
2022-12-27T06:52:16.507Z,0.56
2022-12-27T06:53:16.457Z,0.57
2022-12-27T06:54:16.404Z,0.58
2022-12-27T06:55:16.345Z,0.58
2022-12-27T06:56:16.312Z,0.57
2022-12-27T06:57:16.249Z,0.58
2022-12-27T06:58:16.198Z,0.57
2022-12-27T06:59:16.178Z,0.57
2022-12-27T07:00:16.111Z,0.57
2022-12-27T07:01:16.228Z,0.57
2022-12-27T07:02:16.266Z,0.58
2022-12-27T07:03:16.013Z,0.58
2022-12-27T07:04:15.915Z,0.57
2022-12-27T07:05:15.837Z,0.58
2022-12-27T07:06:15.790Z,0.58
2022-12-27T07:07:16.189Z,0.59
2022-12-27T07:08:15.686Z,0.58
2022-12-27T07:09:15.629Z,0.57
2022-12-27T07:10:15.591Z,0.58
2022-12-27T07:11:15.565Z,0.58
2022-12-27T07:12:15.515Z,0.57
2022-12-27T07:13:15.446Z,0.58
2022-12-27T07:14:15.390Z,0.58
2022-12-27T07:15:15.353Z,0.57
2022-12-27T07:16:15.311Z,0.57
2022-12-27T07:17:15.262Z,0.58
2022-12-27T07:18:15.183Z,0.58
2022-12-27T07:19:15.221Z,0.59
2022-12-27T07:20:15.092Z,0.58
2022-12-27T07:21:15.038Z,0.58
2022-12-27T07:22:14.989Z,0.57
2022-12-27T07:23:19.282Z,0.58
2022-12-27T07:24:15.026Z,0.58
2022-12-27T07:25:14.943Z,0.58
2022-12-27T07:26:14.918Z,0.58
2022-12-27T07:27:14.872Z,0.58
2022-12-27T07:28:14.790Z,0.58
2022-12-27T07:29:14.748Z,0.59
2022-12-27T07:30:14.697Z,0.57
2022-12-27T07:31:14.670Z,0.57
2022-12-27T07:32:14.600Z,0.58
2022-12-27T07:33:14.525Z,0.57
2022-12-27T07:34:14.484Z,0.58
2022-12-27T07:35:14.460Z,0.57
2022-12-27T07:36:14.409Z,0.58
2022-12-27T07:37:14.340Z,0.59
2022-12-27T07:38:14.281Z,0.58
2022-12-27T07:39:14.224Z,0.58
2022-12-27T07:40:14.179Z,0.58
2022-12-27T07:41:14.177Z,0.58
2022-12-27T07:42:14.078Z,0.57
2022-12-27T07:43:14.029Z,0.57
2022-12-27T07:44:13.976Z,0.58
2022-12-27T07:45:13.937Z,0.58
2022-12-27T07:46:13.953Z,0.58
2022-12-27T07:47:13.862Z,0.58
2022-12-27T07:48:13.792Z,0.58
2022-12-27T07:49:17.604Z,0.58
2022-12-27T07:50:13.708Z,0.58
2022-12-27T07:51:13.677Z,0.58
2022-12-27T07:52:13.603Z,0.58
2022-12-27T07:53:13.633Z,0.58
2022-12-27T07:54:13.494Z,0.59
2022-12-27T07:55:13.441Z,0.58
2022-12-27T07:56:13.396Z,0.58
2022-12-27T07:57:13.348Z,0.58
2022-12-27T07:58:13.298Z,0.59
2022-12-27T07:59:13.262Z,0.59
2022-12-27T08:00:13.202Z,0.59
2022-12-27T08:01:13.347Z,0.59
2022-12-27T08:02:13.238Z,0.58
2022-12-27T08:03:13.135Z,0.59
2022-12-27T08:04:13.017Z,0.58
2022-12-27T08:05:12.980Z,0.58
2022-12-27T08:06:12.925Z,0.58
2022-12-27T08:07:12.929Z,0.58
2022-12-27T08:08:12.828Z,0.60
2022-12-27T08:09:12.782Z,0.58
2022-12-27T08:10:12.732Z,0.58
2022-12-27T08:11:12.674Z,0.58
2022-12-27T08:12:12.682Z,0.58
2022-12-27T08:13:12.579Z,0.59
2022-12-27T08:14:12.546Z,0.59
2022-12-27T08:15:12.475Z,0.59
2022-12-27T08:16:12.426Z,0.59
2022-12-27T08:17:12.417Z,0.59
2022-12-27T08:18:12.342Z,0.59
2022-12-27T08:19:12.281Z,0.59
2022-12-27T08:20:12.247Z,0.59
2022-12-27T08:21:12.187Z,0.59
2022-12-27T08:22:12.178Z,0.58
2022-12-27T08:23:12.100Z,0.60
2022-12-27T08:24:12.032Z,0.59
2022-12-27T08:25:11.985Z,0.59
2022-12-27T08:26:11.936Z,0.58
2022-12-27T08:27:11.890Z,0.59
2022-12-27T08:28:11.846Z,0.59
2022-12-27T08:29:11.797Z,0.60
2022-12-27T08:30:11.781Z,0.59
2022-12-27T08:31:11.758Z,0.59
2022-12-27T08:32:11.661Z,0.59
2022-12-27T08:33:11.609Z,0.60
2022-12-27T08:34:11.559Z,0.59
2022-12-27T08:35:50.199Z,0.59
2022-12-27T08:36:36.683Z,0.59
2022-12-27T08:37:11.407Z,0.59
2022-12-27T08:38:11.348Z,0.60
2022-12-27T08:39:11.326Z,0.60
2022-12-27T08:40:11.249Z,0.60
2022-12-27T08:41:11.201Z,0.61
2022-12-27T08:42:11.158Z,0.60
2022-12-27T08:43:11.107Z,0.60
2022-12-27T08:44:11.060Z,0.60
2022-12-27T08:45:11.002Z,0.59
2022-12-27T08:46:11.023Z,0.61
2022-12-27T08:47:10.899Z,0.60
2022-12-27T08:48:10.872Z,0.59
2022-12-27T08:49:10.824Z,0.61
2022-12-27T08:50:10.749Z,0.60
2022-12-27T08:51:13.884Z,0.60
2022-12-27T08:52:10.657Z,0.60
2022-12-27T08:53:10.585Z,0.61
2022-12-27T08:54:10.573Z,0.60
2022-12-27T08:55:10.522Z,0.60
2022-12-27T08:56:10.436Z,0.60
2022-12-27T08:57:10.381Z,0.61
2022-12-27T08:58:16.012Z,0.60
2022-12-27T08:59:10.279Z,0.60
2022-12-27T09:00:10.226Z,0.60
2022-12-27T09:01:10.231Z,0.61
2022-12-27T09:02:10.226Z,0.61
2022-12-27T09:03:10.103Z,0.61
2022-12-27T09:04:10.053Z,0.60
2022-12-27T09:05:09.974Z,0.60
2022-12-27T09:06:09.925Z,0.60
2022-12-27T09:07:09.880Z,0.61
2022-12-27T09:08:09.866Z,0.60
2022-12-27T09:09:09.781Z,0.60
2022-12-27T09:10:09.733Z,0.60
2022-12-27T09:11:09.726Z,0.60
2022-12-27T09:12:09.653Z,0.61
2022-12-27T09:13:09.586Z,0.61
2022-12-27T09:14:09.608Z,0.60
2022-12-27T09:15:09.497Z,0.60
2022-12-27T09:16:09.581Z,0.61
2022-12-27T09:17:09.408Z,0.61
2022-12-27T09:18:09.357Z,0.60
2022-12-27T09:19:09.472Z,0.61
2022-12-27T09:20:09.287Z,0.61
2022-12-27T09:21:09.226Z,0.60
2022-12-27T09:22:10.038Z,0.61
2022-12-27T09:23:09.145Z,0.61
2022-12-27T09:24:09.119Z,0.62
2022-12-27T09:25:09.088Z,0.62
2022-12-27T09:26:09.007Z,0.61
2022-12-27T09:27:08.972Z,0.61
2022-12-27T09:28:08.902Z,0.62
2022-12-27T09:29:08.884Z,0.61
2022-12-27T09:30:08.822Z,0.61
2022-12-27T09:31:08.805Z,0.62
2022-12-27T09:32:08.731Z,0.61
2022-12-27T09:33:08.663Z,0.61
2022-12-27T09:34:08.655Z,0.61
2022-12-27T09:35:08.571Z,0.61
2022-12-27T09:36:08.527Z,0.61
2022-12-27T09:37:08.495Z,0.61
2022-12-27T09:38:08.427Z,0.61
2022-12-27T09:39:08.428Z,0.61
2022-12-27T09:40:08.334Z,0.61
2022-12-27T09:41:08.284Z,0.61
2022-12-27T09:43:19.469Z,0.61
2022-12-27T09:44:08.175Z,0.61
2022-12-27T09:45:08.124Z,0.62
2022-12-27T09:46:08.119Z,0.62
2022-12-27T09:47:08.015Z,0.62
2022-12-27T09:48:08.009Z,0.62
2022-12-27T09:49:07.913Z,0.62
2022-12-27T09:50:07.866Z,0.62
2022-12-27T09:51:07.831Z,0.63
2022-12-27T09:52:07.789Z,0.62
2022-12-27T09:53:07.741Z,0.62
2022-12-27T09:54:07.691Z,0.62
2022-12-27T09:55:07.833Z,0.61
2022-12-27T09:56:07.589Z,0.63
2022-12-27T09:57:19.819Z,0.62
2022-12-27T09:58:07.498Z,0.62
2022-12-27T09:59:07.467Z,0.62
2022-12-27T10:00:07.384Z,0.62
2022-12-27T10:01:07.335Z,0.62
2022-12-27T10:02:07.391Z,0.62
2022-12-27T10:03:07.243Z,0.62
2022-12-27T10:04:07.189Z,0.61
2022-12-27T10:05:23.424Z,0.63
2022-12-27T10:06:07.145Z,0.63
2022-12-27T10:07:07.082Z,0.63
2022-12-27T10:08:07.015Z,0.63
2022-12-27T10:09:06.974Z,0.62
2022-12-27T10:10:06.968Z,0.63
2022-12-27T10:11:06.871Z,0.62
2022-12-27T10:12:06.832Z,0.63
2022-12-27T10:13:06.771Z,0.63
2022-12-27T10:14:06.733Z,0.62
2022-12-27T10:15:06.759Z,0.62
2022-12-27T10:16:06.707Z,0.62
2022-12-27T10:17:06.581Z,0.62
2022-12-27T10:18:06.529Z,0.61
2022-12-27T10:19:06.483Z,0.62
2022-12-27T10:20:06.473Z,0.62
2022-12-27T10:21:06.402Z,0.62
2022-12-27T10:22:06.388Z,0.62
2022-12-27T10:23:06.830Z,0.62
2022-12-27T10:24:06.243Z,0.63
2022-12-27T10:25:06.199Z,0.61
2022-12-27T10:26:06.216Z,0.62
2022-12-27T10:27:06.114Z,0.61
2022-12-27T10:28:06.065Z,0.61
2022-12-27T10:29:06.044Z,0.62
2022-12-27T10:30:05.967Z,0.61
2022-12-27T10:31:05.988Z,0.62
2022-12-27T10:32:05.898Z,0.61
2022-12-27T10:33:05.815Z,0.62
2022-12-27T10:34:10.540Z,0.61
2022-12-27T10:35:05.735Z,0.61
2022-12-27T10:36:05.699Z,0.62
2022-12-27T10:37:05.605Z,0.62
2022-12-27T10:38:05.553Z,0.62
2022-12-27T10:39:05.506Z,0.63
2022-12-27T10:40:05.458Z,0.62
2022-12-27T10:41:05.413Z,0.62
2022-12-27T10:42:05.370Z,0.62
2022-12-27T10:43:05.325Z,0.62
2022-12-27T10:44:05.270Z,0.62
2022-12-27T10:45:05.213Z,0.62
2022-12-27T10:46:05.181Z,0.62
2022-12-27T10:47:05.216Z,0.62
2022-12-27T10:48:05.072Z,0.62
2022-12-27T10:49:21.488Z,0.63
2022-12-27T10:50:04.959Z,0.63
2022-12-27T10:51:04.906Z,0.63
2022-12-27T10:52:04.851Z,0.63
2022-12-27T10:53:04.815Z,0.63
2022-12-27T10:54:04.756Z,0.62
2022-12-27T10:55:04.707Z,0.63
2022-12-27T10:56:04.657Z,0.62
2022-12-27T10:57:04.623Z,0.62
2022-12-27T10:58:04.566Z,0.62
2022-12-27T10:59:04.508Z,0.62
2022-12-27T11:00:04.458Z,0.63
2022-12-27T11:01:04.507Z,0.62
2022-12-27T11:02:04.517Z,0.63
2022-12-27T11:03:04.347Z,0.62
2022-12-27T11:04:04.274Z,0.63
2022-12-27T11:05:04.221Z,0.62
2022-12-27T11:06:04.160Z,0.63
2022-12-27T11:07:04.131Z,0.62
2022-12-27T11:08:04.068Z,0.62
2022-12-27T11:09:04.016Z,0.63
2022-12-27T11:10:03.969Z,0.62
2022-12-27T11:11:03.916Z,0.62
2022-12-27T11:12:03.865Z,0.62
2022-12-27T11:13:03.808Z,0.62
2022-12-27T11:14:03.757Z,0.62
2022-12-27T11:15:03.721Z,0.62
2022-12-27T11:16:03.771Z,0.62
2022-12-27T11:17:03.601Z,0.62
2022-12-27T11:18:03.547Z,0.63
2022-12-27T11:19:03.518Z,0.62
2022-12-27T11:20:03.446Z,0.62
2022-12-27T11:21:03.432Z,0.62
2022-12-27T11:22:03.339Z,0.63
2022-12-27T11:23:03.287Z,0.61
2022-12-27T11:24:03.230Z,0.62
2022-12-27T11:25:03.174Z,0.62
2022-12-27T11:26:03.140Z,0.62
2022-12-27T11:27:03.059Z,0.61
2022-12-27T11:28:03.008Z,0.62
2022-12-27T11:29:02.950Z,0.62
2022-12-27T11:30:02.908Z,0.63
2022-12-27T11:31:02.995Z,0.63
2022-12-27T11:32:02.803Z,0.62
2022-12-27T11:33:02.755Z,0.62
2022-12-27T11:34:02.695Z,0.62
2022-12-27T11:35:02.725Z,0.62
2022-12-27T11:36:02.643Z,0.63
2022-12-27T11:37:02.581Z,0.62
2022-12-27T11:38:02.500Z,0.62
2022-12-27T11:39:02.443Z,0.63
2022-12-27T11:40:02.403Z,0.63
2022-12-27T11:41:02.348Z,0.62
2022-12-27T11:42:02.302Z,0.62
2022-12-27T11:43:02.250Z,0.62
2022-12-27T11:44:02.227Z,0.62
2022-12-27T11:45:02.150Z,0.63
2022-12-27T11:46:02.081Z,0.62
2022-12-27T11:47:02.128Z,0.63
2022-12-27T11:48:01.990Z,0.62
2022-12-27T11:49:01.938Z,0.63
2022-12-27T11:50:01.904Z,0.62
2022-12-27T11:51:01.846Z,0.62
2022-12-27T11:52:01.776Z,0.62
2022-12-27T11:53:01.727Z,0.64
2022-12-27T11:54:01.678Z,0.62
2022-12-27T11:55:01.629Z,0.63
2022-12-27T11:56:01.596Z,0.62
2022-12-27T11:57:01.534Z,0.61
2022-12-27T11:58:01.479Z,0.63
2022-12-27T11:59:01.434Z,0.62
2022-12-27T12:00:01.386Z,0.62
2022-12-27T12:01:05.235Z,0.62
2022-12-27T12:02:01.560Z,0.62
2022-12-27T12:03:01.436Z,0.62
2022-12-27T12:04:01.194Z,0.62
2022-12-27T12:05:01.146Z,0.62
2022-12-27T12:06:01.095Z,0.62
2022-12-27T12:07:01.063Z,0.62
2022-12-27T12:08:00.987Z,0.63
2022-12-27T12:09:00.946Z,0.63
2022-12-27T12:10:00.891Z,0.62
2022-12-27T12:11:00.832Z,0.62
2022-12-27T12:12:00.802Z,0.62
2022-12-27T12:13:00.738Z,0.63
2022-12-27T12:14:00.702Z,0.63
2022-12-27T12:15:00.644Z,0.62
2022-12-27T12:16:00.590Z,0.63
2022-12-27T12:17:00.534Z,0.63
2022-12-27T12:18:00.497Z,0.63
2022-12-27T12:19:00.443Z,0.63
2022-12-27T12:20:00.373Z,0.62
2022-12-27T12:21:00.329Z,0.63
2022-12-27T12:22:00.281Z,0.63
2022-12-27T12:23:00.247Z,0.63
2022-12-27T12:24:00.163Z,0.63
2022-12-27T12:25:00.165Z,0.63
2022-12-27T12:26:00.079Z,0.62
2022-12-27T12:27:00.006Z,0.63
2022-12-27T12:27:59.958Z,0.62
2022-12-27T12:29:00.693Z,0.63
2022-12-27T12:29:59.846Z,0.63
2022-12-27T12:30:59.798Z,0.63
2022-12-27T12:31:59.785Z,0.62
2022-12-27T12:32:59.757Z,0.63
2022-12-27T12:33:59.661Z,0.63
2022-12-27T12:34:59.584Z,0.63
2022-12-27T12:35:59.547Z,0.62
2022-12-27T12:36:59.482Z,0.63
2022-12-27T12:38:00.131Z,0.63
2022-12-27T12:38:59.410Z,0.63
2022-12-27T12:39:59.359Z,0.63
2022-12-27T12:40:59.286Z,0.62
2022-12-27T12:41:59.238Z,0.62
2022-12-27T12:42:59.206Z,0.62
2022-12-27T12:43:59.130Z,0.62
2022-12-27T12:44:59.085Z,0.62
2022-12-27T12:45:59.142Z,0.62
2022-12-27T12:46:58.975Z,0.62
2022-12-27T12:47:58.926Z,0.63
2022-12-27T12:48:58.888Z,0.63
2022-12-27T12:49:58.815Z,0.63
2022-12-27T12:50:58.769Z,0.62
2022-12-27T12:51:58.725Z,0.62
2022-12-27T12:52:58.734Z,0.63
2022-12-27T12:53:58.616Z,0.63
2022-12-27T12:54:58.592Z,0.62
2022-12-27T12:55:58.515Z,0.63
2022-12-27T12:56:58.480Z,0.63
2022-12-27T12:57:58.464Z,0.62
2022-12-27T12:58:58.355Z,0.63
2022-12-27T12:59:58.299Z,0.62
2022-12-27T13:00:58.341Z,0.62
2022-12-27T13:01:58.378Z,0.62
2022-12-27T13:02:58.226Z,0.62
2022-12-27T13:03:58.255Z,0.62
2022-12-27T13:04:58.024Z,0.62
2022-12-27T13:05:57.979Z,0.63
2022-12-27T13:06:57.935Z,0.62
2022-12-27T13:07:57.867Z,0.62
2022-12-27T13:08:57.809Z,0.62
2022-12-27T13:09:57.761Z,0.62
2022-12-27T13:10:57.751Z,0.63
2022-12-27T13:11:57.647Z,0.62
2022-12-27T13:12:57.614Z,0.62
2022-12-27T13:13:57.541Z,0.62
2022-12-27T13:14:57.490Z,0.62
2022-12-27T13:15:57.452Z,0.62
2022-12-27T13:16:57.449Z,0.62
2022-12-27T13:17:57.336Z,0.62
2022-12-27T13:18:57.280Z,0.63
2022-12-27T13:19:57.232Z,0.62
2022-12-27T13:20:57.182Z,0.61
2022-12-27T13:21:57.150Z,0.62
2022-12-27T13:22:57.122Z,0.62
2022-12-27T13:23:57.047Z,0.61
2022-12-27T13:24:56.985Z,0.61
2022-12-27T13:25:56.929Z,0.62
2022-12-27T13:26:56.903Z,0.62
2022-12-27T13:27:56.833Z,0.61
2022-12-27T13:28:56.784Z,0.62
2022-12-27T13:30:00.336Z,0.61
2022-12-27T13:30:56.787Z,0.61
2022-12-27T13:31:56.616Z,0.62
2022-12-27T13:32:56.571Z,0.62
2022-12-27T13:33:56.510Z,0.62
2022-12-27T13:34:56.451Z,0.63
2022-12-27T13:35:56.399Z,0.62
2022-12-27T13:36:56.347Z,0.62
2022-12-27T13:37:56.304Z,0.62
2022-12-27T13:38:56.250Z,0.62
2022-12-27T13:39:56.195Z,0.62
2022-12-27T13:40:56.138Z,0.61
2022-12-27T13:41:56.099Z,0.61
2022-12-27T13:42:56.062Z,0.61
2022-12-27T13:43:55.995Z,0.61
2022-12-27T13:44:55.929Z,0.62
2022-12-27T13:45:55.916Z,0.62
2022-12-27T13:46:55.833Z,0.61
2022-12-27T13:47:55.782Z,0.61
2022-12-27T13:48:55.734Z,0.62
2022-12-27T13:49:55.672Z,0.62
2022-12-27T13:50:55.627Z,0.62
2022-12-27T13:51:55.565Z,0.61
2022-12-27T13:52:59.824Z,0.62
2022-12-27T13:53:55.447Z,0.62
2022-12-27T13:54:55.404Z,0.62
2022-12-27T13:55:55.345Z,0.62
2022-12-27T13:56:55.804Z,0.62
2022-12-27T13:57:55.221Z,0.63
2022-12-27T13:58:59.510Z,0.61
2022-12-27T13:59:55.233Z,0.62
2022-12-27T14:00:55.130Z,0.62
2022-12-27T14:01:55.210Z,0.62
2022-12-27T14:02:55.106Z,0.61
2022-12-27T14:03:54.959Z,0.61
2022-12-27T14:04:59.569Z,0.61
2022-12-27T14:05:54.860Z,0.61
2022-12-27T14:06:54.804Z,0.61
2022-12-27T14:07:54.752Z,0.61
2022-12-27T14:08:54.696Z,0.61
2022-12-27T14:09:55.147Z,0.61
2022-12-27T14:11:00.891Z,0.62
2022-12-27T14:11:54.554Z,0.62
2022-12-27T14:12:54.472Z,0.62
2022-12-27T14:13:54.452Z,0.62
2022-12-27T14:14:54.381Z,0.62